Time;durP1;ratioP1;P1;durP2;ratioP2;P2;SDS_P1;SDS_P2;PMS_P1;PMS_P2;Temp;Humidity;BMP_temperature;BMP_pressure;BME280_temperature;BME280_humidity;BME280_pressure;Samples;Min_cycle;Max_cycle;Signal;HPM_P1;HPM_P2
2023/05/12 00:01:20;;;;;;;;;;;;;;;22.68;48.71;97176.53;619445;227;67179;-60
2023/05/12 00:03:48;;;;;;;;;;;;;;;22.68;49.38;97173.86;619451;229;67018;-60
2023/05/12 00:06:15;;;;;;;;;;;;;;;22.67;49.48;97169.59;619506;229;62929;-61
2023/05/12 00:08:43;;;;;;;;;;;;;;;22.68;51.08;97171.17;619469;229;67231;-60
2023/05/12 00:11:10;;;;;;;;;;;;;;;22.66;50.55;97162.61;619555;228;67063;-61
2023/05/12 00:13:38;;;;;;;;;;;;;;;22.66;50.30;97157.25;619517;229;65130;-61
2023/05/12 00:16:06;;;;;;;;;;;;;;;22.66;49.54;97156.45;619419;229;64978;-60
2023/05/12 00:18:34;;;;;;;;;;;;;;;22.66;50.73;97153.78;619502;229;67049;-60
2023/05/12 00:21:01;;;;;;;;;;;;;;;22.65;49.09;97161.02;619513;229;65079;-60
2023/05/12 00:23:29;;;;;;;;;;;;;;;22.65;50.20;97162.91;619536;228;67294;-60
2023/05/12 00:25:56;;;;;;;;;;;;;;;22.64;49.85;97158.61;619543;229;64906;-60
2023/05/12 00:28:24;;;;;;;;;;;;;;;22.64;50.80;97163.97;619535;228;62964;-60
2023/05/12 00:30:51;;;;;;;;;;;;;;;22.64;50.39;97158.61;619430;229;67656;-61
2023/05/12 00:33:19;;;;;;;;;;;;;;;22.62;49.40;97158.91;619475;229;67273;-60
2023/05/12 00:35:46;;;;;;;;;;;;;;;22.63;50.43;97157.02;619388;229;62688;-60
2023/05/12 00:38:14;;;;;;;;;;;;;;;22.61;48.74;97157.28;619532;229;67635;-60
2023/05/12 00:40:42;;;;;;;;;;;;;;;22.61;50.16;97154.60;619524;229;67594;-60
2023/05/12 00:43:10;;;;;;;;;;;;;;;22.60;49.89;97158.37;619433;229;65716;-60
2023/05/12 00:45:38;;;;;;;;;;;;;;;22.61;50.69;97165.31;619486;229;65047;-60
2023/05/12 00:48:06;;;;;;;;;;;;;;;22.61;50.61;97155.40;619415;229;65576;-60
2023/05/12 00:50:34;;;;;;;;;;;;;;;22.60;50.38;97166.41;619554;229;65058;-60
2023/05/12 00:53:02;;;;;;;;;;;;;;;22.60;49.36;97163.73;619622;228;66903;-60
2023/05/12 00:55:30;;;;;;;;;;;;;;;22.57;49.83;97159.73;619476;229;66856;-60
2023/05/12 00:57:58;;;;;;;;;;;;;;;22.59;50.10;97164.81;619396;229;65005;-60
2023/05/12 01:00:27;;;;;;;;;;;;;;;22.57;51.35;97159.73;619553;229;65056;-60
2023/05/12 01:03:00;;;;;;;;;;;;;;;22.57;50.12;97162.41;619588;229;64510;-60
2023/05/12 01:05:28;;;;;;;;;;;;;;;22.56;50.27;97165.34;619470;228;67241;-60
2023/05/12 01:07:57;;;;;;;;;;;;;;;22.56;51.51;97162.67;619433;229;67627;-60
2023/05/12 01:10:25;;;;;;;;;;;;;;;22.55;49.26;97163.76;619473;228;66825;-60
2023/05/12 01:12:53;;;;;;;;;;;;;;;22.56;50.27;97168.02;619349;228;63003;-60
2023/05/12 01:15:20;;;;;;;;;;;;;;;22.55;50.55;97169.11;619456;229;64449;-60
2023/05/12 01:17:49;;;;;;;;;;;;;;;22.55;50.77;97166.44;614525;229;67948;-59
2023/05/12 01:20:18;;;;;;;;;;;;;;;22.54;49.29;97162.16;619358;229;65230;-60
2023/05/12 01:22:47;;;;;;;;;;;;;;;22.53;50.67;97164.02;619467;229;67059;-60
2023/05/12 01:25:15;;;;;;;;;;;;;;;22.53;49.33;97163.23;619432;229;67419;-60
2023/05/12 01:27:44;;;;;;;;;;;;;;;22.53;50.08;97171.27;619517;229;65047;-60
2023/05/12 01:30:13;;;;;;;;;;;;;;;22.52;49.69;97178.50;619415;229;68017;-60
2023/05/12 01:32:41;;;;;;;;;;;;;;;22.50;50.71;97175.29;619557;229;67061;-60
2023/05/12 01:35:09;;;;;;;;;;;;;;;22.52;51.00;97175.03;619467;229;63816;-59
2023/05/12 01:37:38;;;;;;;;;;;;;;;22.50;50.31;97174.49;619482;229;44514;-60
2023/05/12 01:40:06;;;;;;;;;;;;;;;22.50;51.61;97177.97;619431;229;67745;-60
2023/05/12 01:42:34;;;;;;;;;;;;;;;22.50;51.86;97174.49;619455;229;65048;-60
2023/05/12 01:45:02;;;;;;;;;;;;;;;22.49;49.13;97168.34;619491;228;64414;-60
2023/05/12 01:47:30;;;;;;;;;;;;;;;22.49;50.80;97172.91;619464;229;67421;-59
2023/05/12 01:50:08;;;;;;;;;;;;;;;22.49;48.76;97175.58;619442;229;65693;-59
2023/05/12 01:52:36;;;;;;;;;;;;;;;22.49;50.96;97175.58;619357;229;67202;-60
2023/05/12 01:55:06;;;;;;;;;;;;;;;22.48;51.05;97173.96;619464;229;44565;-60
2023/05/12 01:57:35;;;;;;;;;;;;;;;22.47;51.56;97173.17;619351;228;42473;-60
2023/05/12 02:00:03;;;;;;;;;;;;;;;22.46;51.53;97170.78;619523;229;67195;-60
2023/05/12 02:02:33;;;;;;;;;;;;;;;22.47;49.38;97173.17;619206;229;44382;-60
2023/05/12 02:05:01;;;;;;;;;;;;;;;22.46;51.07;97173.46;619382;228;65750;-60
2023/05/12 02:07:28;;;;;;;;;;;;;;;22.45;50.71;97172.64;619566;229;67150;-59
2023/05/12 02:09:57;;;;;;;;;;;;;;;22.45;50.74;97177.20;619444;229;67732;-61
2023/05/12 02:12:24;;;;;;;;;;;;;;;22.44;50.24;97172.93;623083;227;65912;-60
2023/05/12 02:14:52;;;;;;;;;;;;;;;22.44;50.15;97176.41;623777;227;66896;-60
2023/05/12 02:17:19;;;;;;;;;;;;;;;22.43;50.93;97174.02;623895;227;65020;-60
2023/05/12 02:19:47;;;;;;;;;;;;;;;22.43;50.57;97168.66;623683;227;65438;-60
2023/05/12 02:22:15;;;;;;;;;;;;;;;22.43;50.79;97174.81;623095;227;67338;-60
2023/05/12 02:24:43;;;;;;;;;;;;;;;22.42;50.36;97175.87;623855;227;64538;-60
2023/05/12 02:27:11;;;;;;;;;;;;;;;22.42;51.49;97177.75;624035;227;65163;-60
2023/05/12 02:29:38;;;;;;;;;;;;;;;22.42;51.02;97180.43;623932;227;64787;-60
2023/05/12 02:32:06;;;;;;;;;;;;;;;22.41;50.10;97178.84;623923;227;65829;-60
2023/05/12 02:34:34;;;;;;;;;;;;;;;22.40;50.84;97178.05;623918;227;65125;-60
2023/05/12 02:37:02;;;;;;;;;;;;;;;22.40;50.78;97178.05;623952;227;65948;-60
2023/05/12 02:39:30;;;;;;;;;;;;;;;22.39;51.46;97174.55;623956;227;66845;-60
2023/05/12 02:41:58;;;;;;;;;;;;;;;22.39;50.88;97177.22;623927;227;63184;-60
2023/05/12 02:44:26;;;;;;;;;;;;;;;22.38;49.70;97175.63;624015;227;67286;-60
2023/05/12 02:46:54;;;;;;;;;;;;;;;22.38;50.14;97180.19;623946;227;65819;-60
2023/05/12 02:49:21;;;;;;;;;;;;;;;22.38;52.05;97182.87;624035;227;65923;-60
2023/05/12 02:51:50;;;;;;;;;;;;;;;22.37;51.00;97187.42;623762;227;67142;-60
2023/05/12 02:54:17;;;;;;;;;;;;;;;22.36;50.67;97185.81;623840;227;64776;-60
2023/05/12 02:56:45;;;;;;;;;;;;;;;22.36;51.44;97193.84;623972;227;65057;-60
2023/05/12 02:59:12;;;;;;;;;;;;;;;22.36;51.41;97195.72;623838;227;65007;-60
2023/05/12 03:01:40;;;;;;;;;;;;;;;22.35;50.15;97194.92;623853;227;64536;-60
2023/05/12 03:04:07;;;;;;;;;;;;;;;22.34;50.57;97198.69;624020;227;65643;-60
2023/05/12 03:06:35;;;;;;;;;;;;;;;22.35;48.98;97202.16;623897;227;67729;-60
2023/05/12 03:09:02;;;;;;;;;;;;;;;22.34;50.55;97204.05;623803;227;68436;-60
2023/05/12 03:11:30;;;;;;;;;;;;;;;22.33;50.18;97207.78;623619;227;62671;-60
2023/05/12 03:13:58;;;;;;;;;;;;;;;22.32;50.96;97208.87;623979;227;67232;-60
2023/05/12 03:16:25;;;;;;;;;;;;;;;22.33;51.15;97213.14;624009;227;66923;-60
2023/05/12 03:18:53;;;;;;;;;;;;;;;22.32;51.23;97211.55;623891;227;66050;-60
2023/05/12 03:21:21;;;;;;;;;;;;;;;22.32;50.91;97211.55;623974;227;68138;-60
2023/05/12 03:23:48;;;;;;;;;;;;;;;22.32;51.34;97210.75;623834;227;64504;-60
2023/05/12 03:26:16;;;;;;;;;;;;;;;22.31;50.91;97215.28;623656;227;63049;-60
2023/05/12 03:28:43;;;;;;;;;;;;;;;22.31;51.41;97215.28;624089;227;66964;-60
2023/05/12 03:31:12;;;;;;;;;;;;;;;22.30;50.15;97215.57;623928;227;64927;-60
2023/05/12 03:33:45;;;;;;;;;;;;;;;22.31;52.04;97215.28;623421;227;63737;-60
2023/05/12 03:36:16;;;;;;;;;;;;;;;22.29;51.06;97221.98;617811;227;68740;-60
2023/05/12 03:38:44;;;;;;;;;;;;;;;22.28;51.70;97226.55;617952;227;64525;-61
2023/05/12 03:41:13;;;;;;;;;;;;;;;22.29;52.15;97230.84;623857;227;65714;-60
2023/05/12 03:43:40;;;;;;;;;;;;;;;22.27;49.98;97227.63;623902;227;67352;-60
2023/05/12 03:46:08;;;;;;;;;;;;;;;22.27;50.88;97235.66;623990;227;66928;-60
2023/05/12 03:48:36;;;;;;;;;;;;;;;22.27;52.22;97232.98;624047;227;63569;-60
2023/05/12 03:51:04;;;;;;;;;;;;;;;22.25;51.14;97240.48;624044;227;67118;-61
2023/05/12 03:53:32;;;;;;;;;;;;;;;22.25;51.71;97247.71;623789;227;68079;-60
2023/05/12 03:56:00;;;;;;;;;;;;;;;22.24;51.90;97246.92;624084;227;64909;-60
2023/05/12 03:58:28;;;;;;;;;;;;;;;22.25;51.53;97258.42;623915;227;67210;-60
2023/05/12 04:01:00;;;;;;;;;;;;;;;22.25;51.02;97258.42;623746;227;66936;-60
2023/05/12 04:03:30;;;;;;;;;;;;;;;22.24;51.51;97252.27;623871;227;65065;-59
2023/05/12 04:05:59;;;;;;;;;;;;;;;22.24;51.47;97251.48;623837;227;67141;-60
2023/05/12 04:08:26;;;;;;;;;;;;;;;22.23;50.59;97256.00;623912;227;67165;-58
2023/05/12 04:10:56;;;;;;;;;;;;;;;22.23;51.92;97256.00;623023;227;66391;-57
2023/05/12 04:13:24;;;;;;;;;;;;;;;22.23;50.28;97265.91;619501;229;64863;-59
2023/05/12 04:15:53;;;;;;;;;;;;;;;22.22;50.85;97264.33;619350;228;66707;-59
2023/05/12 04:18:23;;;;;;;;;;;;;;;22.22;50.57;97261.65;619470;229;45001;-59
2023/05/12 04:20:51;;;;;;;;;;;;;;;22.21;51.16;97268.88;619511;229;66861;-59
2023/05/12 04:23:18;;;;;;;;;;;;;;;22.23;50.41;97271.27;619492;229;68014;-59
2023/05/12 04:25:46;;;;;;;;;;;;;;;22.22;51.48;97265.13;619413;229;62586;-58
2023/05/12 04:28:14;;;;;;;;;;;;;;;22.23;50.70;97271.27;619510;229;67631;-58
2023/05/12 04:30:42;;;;;;;;;;;;;;;22.23;51.34;97272.06;619396;227;64852;-58
2023/05/12 04:33:10;;;;;;;;;;;;;;;22.23;50.75;97271.27;619534;229;65231;-59
2023/05/12 04:35:38;;;;;;;;;;;;;;;22.23;50.96;97273.95;619538;228;67123;-59
2023/05/12 04:38:07;;;;;;;;;;;;;;;22.24;50.54;97268.34;619542;229;64635;-58
2023/05/12 04:40:36;;;;;;;;;;;;;;;22.25;50.83;97274.48;619509;229;65019;-58
2023/05/12 04:43:04;;;;;;;;;;;;;;;22.26;50.47;97279.58;619311;228;67593;-58
2023/05/12 04:45:32;;;;;;;;;;;;;;;22.28;50.90;97280.09;619482;229;67685;-58
2023/05/12 04:47:59;;;;;;;;;;;;;;;22.28;51.73;97274.73;619487;229;65088;-58
2023/05/12 04:50:29;;;;;;;;;;;;;;;22.29;49.44;97281.70;619529;229;67464;-58
2023/05/12 04:52:56;;;;;;;;;;;;;;;22.30;50.91;97280.63;619514;229;66981;-59
2023/05/12 04:55:25;;;;;;;;;;;;;;;22.32;51.82;97278.48;619426;229;63770;-59
2023/05/12 04:57:54;;;;;;;;;;;;;;;22.32;50.37;97275.01;619202;228;49410;-59
2023/05/12 05:00:22;;;;;;;;;;;;;;;22.33;51.36;97272.04;619518;229;67758;-59
2023/05/12 05:02:50;;;;;;;;;;;;;;;22.34;52.04;97278.19;619561;229;62750;-59
2023/05/12 05:05:17;;;;;;;;;;;;;;;22.36;52.47;97281.41;619599;229;64665;-59
2023/05/12 05:07:45;;;;;;;;;;;;;;;22.37;52.20;97278.47;619544;228;67290;-59
2023/05/12 05:10:12;;;;;;;;;;;;;;;22.38;52.45;97277.38;619450;229;65943;-59
2023/05/12 05:12:42;;;;;;;;;;;;;;;22.39;50.33;97280.86;623476;227;47801;-59
2023/05/12 05:15:11;;;;;;;;;;;;;;;22.41;52.09;97281.39;624078;227;66828;-59
2023/05/12 05:17:41;;;;;;;;;;;;;;;22.42;52.43;97274.95;623816;227;62789;-59
2023/05/12 05:20:10;;;;;;;;;;;;;;;22.43;52.57;97275.78;624000;227;65453;-59
2023/05/12 05:22:38;;;;;;;;;;;;;;;22.43;51.51;97276.57;623986;227;66957;-59
2023/05/12 05:25:07;;;;;;;;;;;;;;;22.44;51.44;97282.72;623864;227;62905;-59
2023/05/12 05:27:34;;;;;;;;;;;;;;;22.46;51.16;97283.26;623785;227;66914;-59
2023/05/12 05:30:02;;;;;;;;;;;;;;;22.46;50.68;97281.38;623970;227;66821;-58
2023/05/12 05:32:29;;;;;;;;;;;;;;;22.48;51.32;97289.13;624044;227;65151;-59
2023/05/12 05:34:58;;;;;;;;;;;;;;;22.50;50.58;97286.98;623667;227;67304;-60
2023/05/12 05:37:26;;;;;;;;;;;;;;;22.51;51.76;97289.39;623959;227;68072;-59
2023/05/12 05:39:56;;;;;;;;;;;;;;;22.51;50.38;97288.59;623806;227;62843;-58
2023/05/12 05:42:23;;;;;;;;;;;;;;;22.53;50.15;97284.55;623913;227;67378;-58
2023/05/12 05:44:51;;;;;;;;;;;;;;;22.54;49.70;97285.37;623920;227;67086;-60
2023/05/12 05:47:19;;;;;;;;;;;;;;;22.55;51.12;97287.75;623799;227;62582;-60
2023/05/12 05:49:47;;;;;;;;;;;;;;;22.56;51.20;97294.73;623747;227;68017;-60
2023/05/12 05:52:15;;;;;;;;;;;;;;;22.57;50.73;97284.81;623888;227;67017;-58
2023/05/12 05:54:43;;;;;;;;;;;;;;;22.59;50.03;97293.39;624077;227;62829;-58
2023/05/12 05:57:10;;;;;;;;;;;;;;;22.60;52.32;97289.63;623993;227;64521;-58
2023/05/12 05:59:38;;;;;;;;;;;;;;;22.60;50.35;97292.30;623689;227;67493;-60
2023/05/12 06:02:06;;;;;;;;;;;;;;;22.61;50.40;97294.69;623118;227;65023;-58
2023/05/12 06:04:34;;;;;;;;;;;;;;;22.62;52.09;97295.52;623506;227;67387;-58
2023/05/12 06:07:02;;;;;;;;;;;;;;;22.64;51.06;97296.02;624018;227;66907;-57
2023/05/12 06:09:31;;;;;;;;;;;;;;;22.64;49.65;97301.38;623535;227;62899;-60
2023/05/12 06:11:58;;;;;;;;;;;;;;;22.66;48.94;97301.91;623653;227;67310;-60
2023/05/12 06:14:26;;;;;;;;;;;;;;;22.68;50.74;97305.13;623413;227;64877;-60
2023/05/12 06:16:55;;;;;;;;;;;;;;;22.70;50.97;97305.66;623335;227;65724;-60
2023/05/12 06:19:24;;;;;;;;;;;;;;;22.71;51.92;97307.25;623828;227;67641;-58
2023/05/12 06:21:51;;;;;;;;;;;;;;;22.73;52.54;97298.95;623875;227;66906;-61
2023/05/12 06:24:19;;;;;;;;;;;;;;;22.74;52.38;97308.58;623870;227;62673;-61
2023/05/12 06:26:46;;;;;;;;;;;;;;;22.75;52.00;97305.64;623705;227;67425;-60
2023/05/12 06:29:14;;;;;;;;;;;;;;;22.78;51.60;97312.30;622380;226;67859;-60
2023/05/12 06:31:41;;;;;;;;;;;;;;;22.79;51.39;97305.88;623992;226;65025;-59
2023/05/12 06:34:09;;;;;;;;;;;;;;;22.81;51.76;97309.09;624253;226;65714;-59
2023/05/12 06:36:37;;;;;;;;;;;;;;;22.83;51.65;97309.59;623944;227;66794;-59
2023/05/12 06:39:05;;;;;;;;;;;;;;;22.85;51.84;97309.34;624475;226;64728;-59
2023/05/12 06:41:33;;;;;;;;;;;;;;;22.86;51.91;97311.72;622436;228;67031;-59
2023/05/12 06:44:01;;;;;;;;;;;;;;;22.88;52.00;97311.46;622341;226;65409;-59
2023/05/12 06:46:28;;;;;;;;;;;;;;;22.89;49.39;97308.52;622495;228;64836;-59
2023/05/12 06:48:56;;;;;;;;;;;;;;;22.91;51.92;97302.87;622477;228;64951;-58
2023/05/12 06:51:23;;;;;;;;;;;;;;;22.93;50.91;97306.08;622779;227;64996;-59
2023/05/12 06:53:51;;;;;;;;;;;;;;;22.94;51.07;97307.67;621198;228;65739;-58
2023/05/12 06:56:20;;;;;;;;;;;;;;;22.96;49.89;97306.34;621155;228;67132;-58
2023/05/12 06:58:48;;;;;;;;;;;;;;;22.97;50.64;97312.50;621175;228;64871;-59
2023/05/12 07:01:15;;;;;;;;;;;;;;;22.98;50.83;97308.77;621131;228;63020;-60
2023/05/12 07:03:43;;;;;;;;;;;;;;;23.00;49.51;97311.98;621206;228;67300;-60
2023/05/12 07:06:12;;;;;;;;;;;;;;;23.00;48.91;97310.09;621149;228;67030;-58
2023/05/12 07:08:40;;;;;;;;;;;;;;;23.01;52.04;97314.36;621148;228;62997;-58
2023/05/12 07:11:07;;;;;;;;;;;;;;;23.02;50.90;97312.48;620656;228;65281;-58
2023/05/12 07:13:36;;;;;;;;;;;;;;;23.02;50.66;97312.48;620639;226;64942;-58
2023/05/12 07:16:04;;;;;;;;;;;;;;;23.04;51.45;97313.02;620428;228;65033;-58
2023/05/12 07:18:32;;;;;;;;;;;;;;;23.04;50.26;97308.45;620413;228;65301;-58
2023/05/12 07:21:00;;;;;;;;;;;;;;;23.07;50.76;97307.09;620404;228;66886;-59
2023/05/12 07:23:30;;;;;;;;;;;;;;;23.08;51.85;97303.35;620421;228;63014;-59
2023/05/12 07:25:57;;;;;;;;;;;;;;;23.10;50.11;97308.42;620542;228;65724;-59
2023/05/12 07:28:24;;;;;;;;;;;;;;;23.12;51.16;97308.95;620456;228;64985;-61
2023/05/12 07:30:52;;;;;;;;;;;;;;;23.13;45.73;97305.18;621951;227;62862;-60
2023/05/12 07:33:19;;;;;;;;;;;;;;;23.18;47.33;97313.20;622762;228;65857;-59
2023/05/12 07:35:47;;;;;;;;;;;;;;;23.21;47.10;97318.00;622664;228;67041;-60
2023/05/12 07:38:14;;;;;;;;;;;;;;;23.21;48.51;97310.75;622774;228;65001;-58
2023/05/12 07:40:43;;;;;;;;;;;;;;;23.21;49.02;97309.95;622676;228;64985;-59
2023/05/12 07:43:11;;;;;;;;;;;;;;;23.21;50.52;97316.11;622696;228;67685;-58
2023/05/12 07:45:38;;;;;;;;;;;;;;;23.22;50.29;97312.38;622762;228;65050;-58
2023/05/12 07:48:06;;;;;;;;;;;;;;;23.23;49.04;97318.53;622660;228;67122;-58
2023/05/12 07:50:33;;;;;;;;;;;;;;;23.24;47.83;97323.63;622674;228;67224;-58
2023/05/12 07:53:01;;;;;;;;;;;;;;;23.26;47.54;97317.97;622685;228;65053;-58
2023/05/12 07:55:28;;;;;;;;;;;;;;;23.27;49.36;97316.88;622647;228;67241;-58
2023/05/12 07:57:56;;;;;;;;;;;;;;;23.28;47.04;97318.50;622700;228;64580;-58
2023/05/12 08:00:23;;;;;;;;;;;;;;;23.28;48.09;97310.45;622721;228;65101;-59
2023/05/12 08:02:51;;;;;;;;;;;;;;;23.31;49.36;97314.47;622643;228;67058;-58
2023/05/12 08:05:18;;;;;;;;;;;;;;;23.31;47.13;97315.26;622716;228;67202;-58
2023/05/12 08:07:46;;;;;;;;;;;;;;;23.33;49.00;97320.36;622717;228;64907;-58
2023/05/12 08:10:13;;;;;;;;;;;;;;;23.35;48.96;97318.17;622675;228;67192;-58
2023/05/12 08:12:41;;;;;;;;;;;;;;;23.34;47.96;97325.42;623751;227;67059;-58
2023/05/12 08:15:09;;;;;;;;;;;;;;;23.35;49.74;97318.17;624001;227;65016;-58
2023/05/12 08:17:36;;;;;;;;;;;;;;;23.36;47.42;97319.80;623904;227;67341;-58
2023/05/12 08:20:04;;;;;;;;;;;;;;;23.37;47.14;97310.66;623988;227;64978;-58
2023/05/12 08:22:33;;;;;;;;;;;;;;;23.40;49.53;97320.83;623971;227;64990;-58
2023/05/12 08:25:00;;;;;;;;;;;;;;;23.41;47.51;97312.52;623891;227;66897;-58
2023/05/12 08:27:28;;;;;;;;;;;;;;;23.41;47.99;97309.83;623998;227;64725;-58
2023/05/12 08:29:55;;;;;;;;;;;;;;;23.42;46.09;97307.95;623977;227;65037;-59
2023/05/12 08:32:23;;;;;;;;;;;;;;;23.42;45.86;97311.42;623938;227;67482;-59
2023/05/12 08:34:50;;;;;;;;;;;;;;;23.45;47.92;97312.75;623959;227;67294;-59
2023/05/12 08:37:18;;;;;;;;;;;;;;;23.45;50.43;97315.44;623994;227;65029;-59
2023/05/12 08:39:46;;;;;;;;;;;;;;;23.45;49.01;97302.81;623962;227;67303;-59
2023/05/12 08:42:27;;;;;;;;;;;;;;;23.45;47.58;97310.06;624017;227;67013;-59
2023/05/12 08:44:55;;;;;;;;;;;;;;;23.46;48.79;97303.61;623910;227;64978;-59
2023/05/12 08:47:24;;;;;;;;;;;;;;;23.47;46.47;97305.23;623979;227;67044;-59
2023/05/12 08:49:56;;;;;;;;;;;;;;;23.47;48.52;97305.23;623983;227;65072;-59
2023/05/12 08:52:24;;;;;;;;;;;;;;;23.49;48.26;97319.17;622207;227;63673;-58
2023/05/12 08:54:52;;;;;;;;;;;;;;;23.50;49.92;97315.39;623956;227;64898;-61
2023/05/12 08:57:21;;;;;;;;;;;;;;;23.49;46.29;97313.81;624037;227;67083;-58
2023/05/12 08:59:48;;;;;;;;;;;;;;;23.50;49.37;97307.34;623941;227;65124;-58
2023/05/12 09:02:17;;;;;;;;;;;;;;;23.52;49.14;97307.05;623909;227;67207;-60
2023/05/12 09:04:44;;;;;;;;;;;;;;;23.52;48.15;97305.20;623917;227;67119;-60
2023/05/12 09:07:12;;;;;;;;;;;;;;;23.53;48.51;97312.15;623922;227;65037;-58
2023/05/12 09:09:41;;;;;;;;;;;;;;;23.53;45.27;97303.31;624006;227;67156;-60
2023/05/12 09:12:10;;;;;;;;;;;;;;;23.57;48.71;97310.53;623965;227;66541;-60
2023/05/12 09:14:39;;;;;;;;;;;;;;;23.60;49.04;97298.41;623889;227;63658;-61
2023/05/12 09:17:06;;;;;;;;;;;;;;;23.61;48.59;97300.82;623940;227;66861;-60
2023/05/12 09:19:34;;;;;;;;;;;;;;;23.61;49.30;97294.66;623932;227;67025;-58
2023/05/12 09:22:01;;;;;;;;;;;;;;;23.59;49.32;97300.30;623811;227;63007;-58
2023/05/12 09:24:36;;;;;;;;;;;;;;;23.59;49.52;97297.61;623935;227;66735;-58
2023/05/12 09:27:04;;;;;;;;;;;;;;;23.60;50.14;97296.55;623941;227;64866;-58
2023/05/12 09:29:34;;;;;;;;;;;;;;;23.59;48.11;97300.30;623961;227;62985;-58
2023/05/12 09:32:02;;;;;;;;;;;;;;;23.60;49.46;97298.41;623952;227;66752;-58
2023/05/12 09:34:39;;;;;;;;;;;;;;;23.61;50.27;97298.14;623924;227;66852;-59
2023/05/12 09:37:06;;;;;;;;;;;;;;;23.61;48.22;97291.98;623977;227;65097;-61
2023/05/12 09:39:35;;;;;;;;;;;;;;;23.61;50.53;97295.45;623966;227;66882;-59
2023/05/12 09:42:02;;;;;;;;;;;;;;;23.59;44.67;97300.30;623922;227;64967;-58
2023/05/12 09:44:32;;;;;;;;;;;;;;;23.63;44.32;97290.61;623840;227;62901;-61
2023/05/12 09:47:06;;;;;;;;;;;;;;;23.64;45.65;97288.73;623863;227;67499;-59
2023/05/12 09:49:34;;;;;;;;;;;;;;;23.65;48.83;97295.68;623918;227;64910;-59
2023/05/12 09:52:03;;;;;;;;;;;;;;;23.66;44.96;97292.73;623974;227;62713;-59
2023/05/12 09:54:32;;;;;;;;;;;;;;;23.69;48.05;97289.48;623950;227;67212;-59
2023/05/12 09:59:47;;;;;;;;;;;;;;;23.73;49.36;97297.79;623933;227;63819;-59
2023/05/12 10:02:16;;;;;;;;;;;;;;;23.74;50.03;97299.41;623909;227;67242;-59
2023/05/12 10:04:51;;;;;;;;;;;;;;;23.75;45.77;97292.16;623803;227;52071;-60
2023/05/12 10:07:20;;;;;;;;;;;;;;;23.75;48.48;97290.27;623913;227;62920;-60
2023/05/12 10:09:48;;;;;;;;;;;;;;;23.76;49.69;97293.75;623844;227;65176;-60
2023/05/12 10:12:16;;;;;;;;;;;;;;;23.76;47.72;97291.86;623837;227;67932;-60
2023/05/12 10:14:44;;;;;;;;;;;;;;;23.78;47.65;97289.70;623906;227;65048;-60
2023/05/12 10:17:12;;;;;;;;;;;;;;;23.79;48.47;97290.49;623982;227;67244;-60
2023/05/12 10:19:42;;;;;;;;;;;;;;;23.79;47.99;97287.81;623958;227;46959;-60
2023/05/12 10:22:16;;;;;;;;;;;;;;;23.79;48.94;97287.81;623925;227;62992;-60
2023/05/12 10:24:45;;;;;;;;;;;;;;;23.80;47.51;97284.86;623839;227;67602;-60
2023/05/12 10:27:13;;;;;;;;;;;;;;;23.79;47.76;97282.44;623962;227;66456;-60
2023/05/12 10:29:41;;;;;;;;;;;;;;;23.80;47.64;97284.86;623909;227;64931;-60
2023/05/12 10:32:10;;;;;;;;;;;;;;;23.82;46.64;97285.38;623757;227;48019;-59
2023/05/12 10:34:39;;;;;;;;;;;;;;;23.81;48.23;97272.23;623928;227;67179;-59
2023/05/12 10:37:09;;;;;;;;;;;;;;;23.81;46.69;97269.55;623948;227;65021;-59
2023/05/12 10:39:37;;;;;;;;;;;;;;;23.80;48.25;97276.80;623947;227;64798;-60
2023/05/12 10:42:08;;;;;;;;;;;;;;;23.83;48.40;97280.81;623967;227;64567;-60
2023/05/12 10:44:38;;;;;;;;;;;;;;;23.83;46.42;97273.55;623908;227;63020;-59
2023/05/12 10:47:14;;;;;;;;;;;;;;;23.82;42.77;97273.86;623568;227;67098;-59
2023/05/12 10:49:42;;;;;;;;;;;;;;;23.83;42.58;97273.55;624036;227;64654;-59
2023/05/12 10:52:13;;;;;;;;;;;;;;;23.85;45.22;97274.08;624015;227;62906;-59
2023/05/12 10:54:43;;;;;;;;;;;;;;;23.86;43.02;97280.23;623920;227;66863;-59
2023/05/12 10:57:14;;;;;;;;;;;;;;;23.86;44.58;97274.88;623941;227;66827;-60
2023/05/12 10:59:50;;;;;;;;;;;;;;;23.86;42.94;97272.19;623990;227;62937;-60
2023/05/12 11:02:19;;;;;;;;;;;;;;;23.86;43.66;97270.30;623547;227;67386;-59
2023/05/12 11:04:54;;;;;;;;;;;;;;;23.87;43.30;97269.23;623922;227;66802;-59
2023/05/12 11:07:28;;;;;;;;;;;;;;;23.90;43.45;97275.92;623884;227;65038;-59
2023/05/12 11:09:57;;;;;;;;;;;;;;;23.88;43.33;97270.83;623965;227;64453;-60
2023/05/12 11:12:26;;;;;;;;;;;;;;;23.91;43.30;97274.83;623760;227;64745;-60
2023/05/12 11:14:54;;;;;;;;;;;;;;;23.91;43.42;97272.14;623907;227;63073;-59
2023/05/12 11:17:21;;;;;;;;;;;;;;;23.92;45.22;97273.73;624004;227;67013;-58
2023/05/12 11:19:51;;;;;;;;;;;;;;;23.92;43.28;97271.05;623974;227;66932;-59
2023/05/12 11:22:22;;;;;;;;;;;;;;;23.94;44.01;97271.57;623967;227;63121;-60
2023/05/12 11:24:51;;;;;;;;;;;;;;;23.94;47.96;97271.57;623904;227;64644;-60
2023/05/12 11:27:19;;;;;;;;;;;;;;;23.94;47.13;97271.57;623981;227;66913;-60
2023/05/12 11:29:48;;;;;;;;;;;;;;;23.97;48.33;97264.84;623966;227;65112;-60
2023/05/12 11:32:16;;;;;;;;;;;;;;;24.00;48.77;97270.43;623066;227;67015;-61
2023/05/12 11:34:44;;;;;;;;;;;;;;;24.01;48.62;97261.31;623973;227;66963;-61
2023/05/12 11:37:11;;;;;;;;;;;;;;;24.05;48.40;97266.91;623924;227;65010;-58
2023/05/12 11:39:41;;;;;;;;;;;;;;;24.06;47.71;97263.95;623953;227;66948;-59
2023/05/12 11:42:09;;;;;;;;;;;;;;;24.07;47.17;97257.48;623954;227;66523;-59
2023/05/12 11:44:36;;;;;;;;;;;;;;;24.10;47.49;97266.85;623978;227;65030;-59
2023/05/12 11:47:06;;;;;;;;;;;;;;;24.11;47.36;97266.55;623974;227;66765;-58
2023/05/12 11:49:33;;;;;;;;;;;;;;;24.13;47.16;97277.02;623631;227;66892;-59
2023/05/12 11:52:01;;;;;;;;;;;;;;;24.15;47.64;97275.66;623448;227;63878;-58
2023/05/12 11:54:29;;;;;;;;;;;;;;;24.15;47.29;97272.97;623323;227;64789;-59
2023/05/12 11:56:57;;;;;;;;;;;;;;;24.17;47.29;97274.55;623981;227;64375;-58
2023/05/12 11:59:26;;;;;;;;;;;;;;;24.18;46.98;97276.97;623398;227;65103;-58
2023/05/12 12:01:54;;;;;;;;;;;;;;;24.20;47.11;97276.66;623154;227;67025;-58
2023/05/12 12:04:41;;;;;;;;;;;;;;;24.20;48.14;97271.30;623866;227;67017;-59
2023/05/12 12:07:09;;;;;;;;;;;;;;;24.20;48.58;97273.98;623889;227;62924;-59
2023/05/12 12:09:40;;;;;;;;;;;;;;;24.20;47.85;97269.44;623958;227;66791;-59
2023/05/12 12:12:08;;;;;;;;;;;;;;;24.20;47.91;97274.80;620252;227;67232;-59
2023/05/12 12:14:36;;;;;;;;;;;;;;;24.21;47.93;97273.70;619302;229;65242;-59
2023/05/12 12:17:04;;;;;;;;;;;;;;;24.23;48.00;97273.44;619274;229;67236;-58
2023/05/12 12:19:32;;;;;;;;;;;;;;;24.24;48.38;97273.13;619185;228;66834;-58
2023/05/12 12:21:59;;;;;;;;;;;;;;;24.25;47.49;97271.24;619357;229;65036;-59
2023/05/12 12:24:27;;;;;;;;;;;;;;;24.24;47.63;97267.77;619422;229;64698;-59
2023/05/12 12:26:56;;;;;;;;;;;;;;;24.26;48.04;97267.49;619321;229;45129;-59
2023/05/12 12:29:25;;;;;;;;;;;;;;;24.26;48.09;97270.97;619391;229;65001;-59
2023/05/12 12:31:52;;;;;;;;;;;;;;;24.27;47.95;97269.08;619506;229;65595;-59
2023/05/12 12:34:19;;;;;;;;;;;;;;;24.27;47.56;97266.39;619468;228;64495;-59
2023/05/12 12:36:47;;;;;;;;;;;;;;;24.27;47.19;97271.77;619434;229;65070;-59
2023/05/12 12:39:15;;;;;;;;;;;;;;;24.28;47.69;97243.81;619473;229;66922;-59
2023/05/12 12:41:42;;;;;;;;;;;;;;;24.27;48.23;97252.97;619486;228;64476;-59
2023/05/12 12:44:10;;;;;;;;;;;;;;;24.26;47.41;97264.80;619379;229;65043;-59
2023/05/12 12:46:38;;;;;;;;;;;;;;;24.25;47.73;97257.81;619359;229;66983;-59
2023/05/12 12:49:05;;;;;;;;;;;;;;;24.24;47.69;97258.91;619430;229;67316;-59
2023/05/12 12:51:34;;;;;;;;;;;;;;;24.24;47.72;97258.91;619525;229;65052;-59
2023/05/12 12:54:01;;;;;;;;;;;;;;;24.25;47.85;97257.81;619367;229;64750;-59
2023/05/12 12:56:29;;;;;;;;;;;;;;;24.24;47.02;97256.23;619459;229;64596;-59